createdAt,value
2018-02-09T00:02:25.679Z,101387.44
2018-02-09T00:04:52.020Z,101382.77
2018-02-09T00:07:18.403Z,101387.67
2018-02-09T00:09:44.669Z,101393.39
2018-02-09T00:12:10.952Z,101386.16
2018-02-09T00:14:37.312Z,101386.16
2018-02-09T00:17:04.003Z,101382.36
2018-02-09T00:19:30.238Z,101381.88
2018-02-09T00:21:56.555Z,101382.18
2018-02-09T00:24:22.786Z,101388.69
2018-02-09T00:26:49.679Z,101381.67
2018-02-09T00:29:16.058Z,101374.23
2018-02-09T00:31:42.321Z,101366.89
2018-02-09T00:34:08.584Z,101374.94
2018-02-09T00:36:34.865Z,101368.40
2018-02-09T00:39:01.199Z,101377.84
2018-02-09T00:41:27.461Z,101374.28
2018-02-09T00:43:53.737Z,101373.35
2018-02-09T00:46:19.962Z,101374.20
2018-02-09T00:48:46.380Z,101365.37
2018-02-09T00:51:12.703Z,101371.25
2018-02-09T00:53:38.984Z,101374.20
2018-02-09T00:56:05.238Z,101369.05
2018-02-09T00:58:31.584Z,101368.66
2018-02-09T01:00:57.890Z,101370.77
2018-02-09T01:03:24.111Z,101366.83
2018-02-09T01:05:50.346Z,101363.81
2018-02-09T01:08:16.777Z,101363.76
2018-02-09T01:10:43.090Z,101354.80
2018-02-09T01:13:09.274Z,101353.14
2018-02-09T01:15:35.531Z,101346.73
2018-02-09T01:18:01.855Z,101349.41
2018-02-09T01:20:28.158Z,101340.67
2018-02-09T01:22:54.371Z,101342.00
2018-02-09T01:25:20.671Z,101342.88
2018-02-09T01:27:46.994Z,101338.14
2018-02-09T01:30:13.360Z,101333.38
2018-02-09T01:32:39.699Z,101331.55
2018-02-09T01:35:05.933Z,101322.51
2018-02-09T01:37:32.266Z,101320.85
2018-02-09T01:39:58.544Z,101324.37
2018-02-09T01:42:24.782Z,101322.59
2018-02-09T01:44:50.993Z,101322.17
2018-02-09T01:47:17.324Z,101313.22
2018-02-09T01:49:43.596Z,101315.38
2018-02-09T01:52:09.810Z,101317.05
2018-02-09T01:54:36.141Z,101304.48
2018-02-09T01:57:02.715Z,101296.29
2018-02-09T01:59:29.085Z,101292.38
2018-02-09T02:01:55.356Z,101286.34
2018-02-09T02:04:21.600Z,101280.30
2018-02-09T02:06:47.870Z,101282.91
2018-02-09T02:09:14.208Z,101279.87
2018-02-09T02:11:40.918Z,101279.87
2018-02-09T02:14:07.198Z,101274.23
2018-02-09T02:16:33.467Z,101267.20
2018-02-09T02:18:59.759Z,101264.66
2018-02-09T02:21:26.015Z,101268.86
2018-02-09T02:23:52.371Z,101270.97
2018-02-09T02:26:18.596Z,101270.97
2018-02-09T02:28:44.872Z,101262.69
2018-02-09T02:31:11.129Z,101256.19
2018-02-09T02:33:37.343Z,101260.44
2018-02-09T02:36:03.597Z,101257.88
2018-02-09T02:38:29.988Z,101248.72
2018-02-09T02:40:56.190Z,101249.97
2018-02-09T02:43:22.547Z,101245.23
2018-02-09T02:45:48.748Z,101237.41
2018-02-09T02:48:14.981Z,101232.20
2018-02-09T02:50:41.263Z,101233.95
2018-02-09T02:53:07.512Z,101231.41
2018-02-09T02:55:33.728Z,101222.15
2018-02-09T02:58:00.030Z,101220.91
2018-02-09T03:00:26.302Z,101221.02
2018-02-09T03:02:52.501Z,101215.39
2018-02-09T03:05:18.816Z,101206.72
2018-02-09T03:07:45.117Z,101200.72
2018-02-09T03:10:11.343Z,101192.53
2018-02-09T03:12:37.587Z,101198.16
2018-02-09T03:15:03.887Z,101193.82
2018-02-09T03:17:30.258Z,101180.84
2018-02-09T03:19:56.558Z,101174.82
2018-02-09T03:22:22.774Z,101169.30
2018-02-09T03:24:49.058Z,101171.92
2018-02-09T03:27:15.326Z,101165.78
2018-02-09T03:29:41.628Z,101154.60
2018-02-09T03:32:07.894Z,101148.16
2018-02-09T03:34:34.188Z,101146.94
2018-02-09T03:37:00.470Z,101141.66
2018-02-09T03:39:27.638Z,101131.66
2018-02-09T03:41:53.873Z,101129.04
2018-02-09T03:44:20.063Z,101127.94
2018-02-09T03:46:46.365Z,101129.16
2018-02-09T03:49:12.608Z,101113.47
2018-02-09T03:51:38.883Z,101112.98
2018-02-09T03:54:05.227Z,101108.80
2018-02-09T03:56:31.503Z,101100.23
2018-02-09T03:58:57.812Z,101102.38
2018-02-09T04:01:24.142Z,101097.67
2018-02-09T04:03:50.378Z,101091.22
2018-02-09T04:06:16.580Z,101081.70
2018-02-09T04:08:43.009Z,101088.25
2018-02-09T04:11:09.222Z,101080.48
2018-02-09T04:13:35.440Z,101073.77
2018-02-09T04:16:01.683Z,101066.00
2018-02-09T04:18:27.955Z,101065.70
2018-02-09T04:20:54.203Z,101071.47
2018-02-09T04:23:20.469Z,101072.77
2018-02-09T04:25:46.761Z,101068.38
2018-02-09T04:28:13.069Z,101061.55
2018-02-09T04:30:39.363Z,101053.03
2018-02-09T04:33:05.589Z,101048.80
2018-02-09T04:35:31.778Z,101053.91
2018-02-09T04:37:58.055Z,101042.64
2018-02-09T04:40:24.270Z,101044.75
2018-02-09T04:42:50.475Z,101037.41
2018-02-09T04:45:16.734Z,101041.30
2018-02-09T04:47:43.073Z,101036.54
2018-02-09T04:50:09.323Z,101029.98
2018-02-09T04:52:35.592Z,101022.08
2018-02-09T04:55:01.860Z,101023.85
2018-02-09T04:57:28.115Z,101016.03
2018-02-09T04:59:54.377Z,101010.45
2018-02-09T05:02:20.685Z,101001.88
2018-02-09T05:04:46.880Z,100995.02
2018-02-09T05:07:13.092Z,100993.66
2018-02-09T05:09:39.402Z,100980.36
2018-02-09T05:12:05.661Z,100976.72
2018-02-09T05:14:31.905Z,100976.77
2018-02-09T05:16:58.170Z,100969.13
2018-02-09T05:19:24.497Z,100971.63
2018-02-09T05:21:50.668Z,100972.98
2018-02-09T05:24:16.917Z,100971.63
2018-02-09T05:26:43.212Z,100963.02
2018-02-09T05:29:09.484Z,100963.47
2018-02-09T05:31:42.646Z,100952.20
2018-02-09T05:34:08.920Z,100948.22
2018-02-09T05:36:35.190Z,100946.91
2018-02-09T05:39:01.552Z,100951.59
2018-02-09T05:41:27.800Z,100945.98
2018-02-09T05:43:54.046Z,100942.95
2018-02-09T05:46:20.960Z,100945.47
2018-02-09T05:48:47.244Z,100936.05
2018-02-09T05:51:13.480Z,100938.24
2018-02-09T05:53:39.830Z,100936.59
2018-02-09T05:56:06.096Z,100936.72
2018-02-09T05:58:32.391Z,100936.34
2018-02-09T06:00:58.665Z,100927.70
2018-02-09T06:03:24.889Z,100929.91
2018-02-09T06:05:51.132Z,100921.77
2018-02-09T06:08:17.478Z,100920.91
2018-02-09T06:10:43.757Z,100921.36
2018-02-09T06:13:10.055Z,100910.63
2018-02-09T06:15:36.335Z,100902.97
2018-02-09T06:18:02.663Z,100901.27
2018-02-09T06:20:30.245Z,100902.53
2018-02-09T06:22:56.532Z,100902.47
2018-02-09T06:25:22.771Z,100900.70
2018-02-09T06:27:49.051Z,100898.61
2018-02-09T06:30:15.358Z,100895.06
2018-02-09T06:32:41.606Z,100897.63
2018-02-09T06:35:07.831Z,100904.18
2018-02-09T06:37:34.120Z,100899.38
2018-02-09T06:40:00.453Z,100900.13
2018-02-09T06:42:26.708Z,100891.00
2018-02-09T06:44:52.995Z,100892.36
2018-02-09T06:47:19.247Z,100888.88
2018-02-09T06:49:45.506Z,100883.20
2018-02-09T06:52:11.904Z,100886.14
2018-02-09T06:54:38.136Z,100883.09
2018-02-09T06:57:04.421Z,100878.23
2018-02-09T06:59:30.721Z,100876.95
2018-02-09T07:01:56.979Z,100879.17
2018-02-09T07:04:23.172Z,100877.34
2018-02-09T07:06:49.503Z,100877.86
2018-02-09T07:09:15.775Z,100883.50
2018-02-09T07:11:42.028Z,100879.95
2018-02-09T07:14:08.323Z,100877.45
2018-02-09T07:16:34.630Z,100873.09
2018-02-09T07:19:00.872Z,100873.55
2018-02-09T07:21:27.169Z,100880.42
2018-02-09T07:23:53.442Z,100877.81
2018-02-09T07:26:19.921Z,100879.55
2018-02-09T07:28:46.205Z,100887.72
2018-02-09T07:31:12.500Z,100885.48
2018-02-09T07:33:38.858Z,100890.34
2018-02-09T07:36:05.068Z,100891.14
2018-02-09T07:38:31.369Z,100881.55
2018-02-09T07:40:57.588Z,100882.16
2018-02-09T07:43:23.785Z,100888.70
2018-02-09T07:45:50.051Z,100874.95
2018-02-09T07:48:16.292Z,100867.23
2018-02-09T07:50:42.515Z,100875.07
2018-02-09T07:53:08.807Z,100868.70
2018-02-09T07:55:35.088Z,100870.34
2018-02-09T07:58:01.362Z,100872.88
2018-02-09T08:00:27.708Z,100871.63
2018-02-09T08:02:53.926Z,100868.80
2018-02-09T08:05:20.196Z,100873.25
2018-02-09T08:07:46.405Z,100867.58
2018-02-09T08:10:12.750Z,100864.66
2018-02-09T08:12:38.952Z,100860.45
2018-02-09T08:15:05.280Z,100864.06
2018-02-09T08:17:31.568Z,100873.71
2018-02-09T08:19:57.955Z,100868.34
2018-02-09T08:22:24.176Z,100871.42
2018-02-09T08:24:50.410Z,100860.50
2018-02-09T08:27:16.705Z,100864.77
2018-02-09T08:29:43.932Z,100869.41
2018-02-09T08:32:10.133Z,100866.17
2018-02-09T08:34:36.403Z,100863.80
2018-02-09T08:37:02.611Z,100860.92
2018-02-09T08:39:29.071Z,100857.41
2018-02-09T08:41:55.303Z,100849.44
2018-02-09T08:44:21.550Z,100843.67
2018-02-09T08:46:47.828Z,100843.17
2018-02-09T08:49:14.130Z,100853.73
2018-02-09T08:51:40.412Z,100851.55
2018-02-09T08:54:06.701Z,100839.47
2018-02-09T08:56:32.994Z,100838.41
2018-02-09T08:58:59.263Z,100836.30
2018-02-09T09:01:25.504Z,100839.31
2018-02-09T09:03:51.800Z,100839.66
2018-02-09T09:06:18.174Z,100843.05
2018-02-09T09:08:44.369Z,100840.02
2018-02-09T09:11:10.612Z,100834.88
2018-02-09T09:13:36.925Z,100832.30
2018-02-09T09:16:03.210Z,100838.34
2018-02-09T09:18:29.436Z,100837.16
2018-02-09T09:20:55.714Z,100839.73
2018-02-09T09:23:21.947Z,100826.80
2018-02-09T09:25:48.203Z,100828.50
2018-02-09T09:28:14.500Z,100833.80
2018-02-09T09:30:40.782Z,100830.66
2018-02-09T09:33:07.055Z,100821.47
2018-02-09T09:35:33.260Z,100817.23
2018-02-09T09:37:59.509Z,100812.17
2018-02-09T09:40:32.724Z,100814.33
2018-02-09T09:42:59.227Z,100812.67
2018-02-09T09:45:25.431Z,100807.97
2018-02-09T09:47:51.697Z,100805.48
2018-02-09T09:50:17.946Z,100810.17
2018-02-09T09:52:44.132Z,100810.45
2018-02-09T09:55:10.419Z,100803.38
2018-02-09T09:57:36.645Z,100807.31
2018-02-09T10:00:02.917Z,100801.27
2018-02-09T10:02:39.078Z,100801.56
2018-02-09T10:05:05.333Z,100795.12
2018-02-09T10:07:31.633Z,100796.37
2018-02-09T10:09:57.817Z,100794.23
2018-02-09T10:12:24.399Z,100801.00
2018-02-09T10:14:50.559Z,100798.89
2018-02-09T10:17:16.707Z,100802.63
2018-02-09T10:19:42.981Z,100808.13
2018-02-09T10:22:09.274Z,100800.31
2018-02-09T10:24:35.494Z,100793.14
2018-02-09T10:27:01.696Z,100796.70
2018-02-09T10:29:27.951Z,100797.71
2018-02-09T10:31:54.199Z,100796.95
2018-02-09T10:34:20.319Z,100799.81
2018-02-09T10:36:46.432Z,100793.08
2018-02-09T10:39:12.577Z,100794.46
2018-02-09T10:41:38.713Z,100791.50
2018-02-09T10:44:04.852Z,100790.58
2018-02-09T10:46:31.005Z,100801.48
2018-02-09T10:48:57.135Z,100790.43
2018-02-09T10:51:23.316Z,100792.67
2018-02-09T10:53:49.425Z,100790.97
2018-02-09T10:56:15.618Z,100781.53
2018-02-09T10:58:41.781Z,100778.49
2018-02-09T11:01:08.084Z,100778.95
2018-02-09T11:03:34.522Z,100782.16
2018-02-09T11:06:00.770Z,100782.19
2018-02-09T11:08:26.934Z,100779.62
2018-02-09T11:10:53.193Z,100773.63
2018-02-09T11:13:19.367Z,100771.91
2018-02-09T11:15:45.520Z,100777.24
2018-02-09T11:18:11.703Z,100770.46
2018-02-09T11:20:38.009Z,100761.12
2018-02-09T11:23:04.171Z,100761.54
2018-02-09T11:25:30.399Z,100758.13
2018-02-09T11:27:56.750Z,100759.91
2018-02-09T11:30:24.251Z,100754.95
2018-02-09T11:32:50.398Z,100751.23
2018-02-09T11:35:16.612Z,100752.05
2018-02-09T11:37:42.813Z,100750.77
2018-02-09T11:40:09.041Z,100748.38
2018-02-09T11:42:35.190Z,100739.19
2018-02-09T11:45:01.391Z,100734.00
2018-02-09T11:47:28.210Z,100737.12
2018-02-09T11:49:54.495Z,100732.89
2018-02-09T11:52:20.730Z,100730.67
2018-02-09T11:54:47.001Z,100726.64
2018-02-09T11:57:13.265Z,100720.26
2018-02-09T11:59:39.494Z,100724.05
2018-02-09T12:02:05.670Z,100718.05
2018-02-09T12:04:31.909Z,100721.36
2018-02-09T12:06:58.222Z,100714.59
2018-02-09T12:09:24.461Z,100712.45
2018-02-09T12:11:50.656Z,100718.73
2018-02-09T12:14:16.856Z,100711.34
2018-02-09T12:16:43.054Z,100698.94
2018-02-09T12:19:09.367Z,100701.42
2018-02-09T12:21:35.644Z,100700.94
2018-02-09T12:24:01.889Z,100692.67
2018-02-09T12:26:28.285Z,100698.84
2018-02-09T12:28:54.487Z,100697.01
2018-02-09T12:31:20.703Z,100696.59
2018-02-09T12:33:46.859Z,100689.69
2018-02-09T12:36:13.141Z,100689.40
2018-02-09T12:38:39.386Z,100681.20
2018-02-09T12:41:05.614Z,100695.36
2018-02-09T12:43:31.766Z,100684.96
2018-02-09T12:45:58.034Z,100692.22
2018-02-09T12:48:24.200Z,100690.86
2018-02-09T12:50:50.441Z,100687.52
2018-02-09T12:53:16.656Z,100684.03
2018-02-09T12:55:42.892Z,100687.80
2018-02-09T12:58:09.042Z,100684.98
2018-02-09T13:00:35.312Z,100682.98
2018-02-09T13:03:01.509Z,100675.28
2018-02-09T13:05:27.673Z,100673.95
2018-02-09T13:07:53.874Z,100673.30
2018-02-09T13:10:20.099Z,100680.28
2018-02-09T13:12:58.326Z,100677.58
2018-02-09T13:15:24.558Z,100684.90
2018-02-09T13:17:50.753Z,100681.48
2018-02-09T13:20:16.984Z,100683.13
2018-02-09T13:22:55.230Z,100682.86
2018-02-09T13:25:21.418Z,100676.44
2018-02-09T13:27:47.667Z,100677.67
2018-02-09T13:30:13.961Z,100686.00
2018-02-09T13:32:52.375Z,100683.47
2018-02-09T13:35:18.579Z,100680.80
2018-02-09T13:37:44.819Z,100673.81
2018-02-09T13:40:11.096Z,100676.98
2018-02-09T13:42:37.415Z,100675.73
2018-02-09T13:45:03.619Z,100674.79
2018-02-09T13:47:29.837Z,100679.58
2018-02-09T13:49:56.008Z,100677.91
2018-02-09T13:52:22.226Z,100676.23
2018-02-09T13:54:48.444Z,100671.48
2018-02-09T14:00:18.346Z,100672.86
2018-02-09T14:02:44.750Z,100675.05
2018-02-09T14:05:11.149Z,100669.02
2018-02-09T14:07:37.327Z,100673.23
2018-02-09T14:10:03.581Z,100675.00
2018-02-09T14:12:29.989Z,100673.43
2018-02-09T14:14:56.229Z,100685.98
2018-02-09T14:17:22.463Z,100675.62
2018-02-09T14:19:48.710Z,100683.86
2018-02-09T14:22:14.886Z,100679.59
2018-02-09T14:24:41.106Z,100681.72
2018-02-09T14:27:07.288Z,100679.53
2018-02-09T14:29:33.404Z,100685.60
2018-02-09T14:31:59.578Z,100689.52
2018-02-09T14:34:25.696Z,100683.03
2018-02-09T14:36:51.882Z,100687.41
2018-02-09T14:39:18.068Z,100683.99
2018-02-09T14:41:44.226Z,100676.70
2018-02-09T14:44:10.356Z,100677.13
2018-02-09T14:46:36.476Z,100687.59
2018-02-09T14:49:02.716Z,100682.88
2018-02-09T14:51:28.903Z,100682.56
2018-02-09T14:53:55.038Z,100681.92
2018-02-09T14:56:21.212Z,100689.42
2018-02-09T14:58:47.329Z,100698.98
2018-02-09T15:01:13.651Z,100697.73
2018-02-09T15:03:39.755Z,100700.80
2018-02-09T15:06:05.880Z,100698.72
2018-02-09T15:08:32.027Z,100706.62
2018-02-09T15:10:58.320Z,100702.83
2018-02-09T15:13:24.583Z,100710.73
2018-02-09T15:15:50.791Z,100713.80
2018-02-09T15:18:17.003Z,100711.37
2018-02-09T15:20:43.244Z,100708.80
2018-02-09T15:26:12.527Z,100715.98
2018-02-09T15:28:38.779Z,100712.16
2018-02-09T15:31:05.005Z,100718.16
2018-02-09T15:33:31.257Z,100720.34
2018-02-09T15:35:57.540Z,100717.80
2018-02-09T15:38:23.718Z,100723.05
2018-02-09T15:40:50.846Z,100727.34
2018-02-09T15:43:17.276Z,100726.48
2018-02-09T15:45:43.472Z,100724.86
2018-02-09T15:48:09.878Z,100733.52
2018-02-09T15:53:08.375Z,100724.63
2018-02-09T15:55:34.820Z,100739.45
2018-02-09T15:58:01.151Z,100736.13
2018-02-09T16:00:27.402Z,100737.02
2018-02-09T16:02:53.670Z,100749.28
2018-02-09T16:05:19.869Z,100751.60
2018-02-09T16:07:46.146Z,100749.58
2018-02-09T16:10:12.409Z,100757.02
2018-02-09T16:12:38.703Z,100757.25
2018-02-09T16:15:04.923Z,100762.53
2018-02-09T16:17:31.170Z,100769.58
2018-02-09T16:19:57.532Z,100773.91
2018-02-09T16:22:23.802Z,100776.90
2018-02-09T16:24:50.026Z,100771.89
2018-02-09T16:27:16.307Z,100771.04
2018-02-09T16:29:42.583Z,100772.75
2018-02-09T16:32:08.819Z,100778.37
2018-02-09T16:34:35.099Z,100782.63
2018-02-09T16:37:01.308Z,100792.97
2018-02-09T16:39:27.546Z,100795.55
2018-02-09T16:41:53.772Z,100787.72
2018-02-09T16:44:19.965Z,100789.58
2018-02-09T16:46:46.306Z,100799.09
2018-02-09T16:49:12.672Z,100802.95
2018-02-09T16:51:39.002Z,100800.75
2018-02-09T16:54:05.240Z,100806.31
2018-02-09T16:56:31.594Z,100811.84
2018-02-09T16:58:57.741Z,100818.31
2018-02-09T17:01:24.108Z,100824.27
2018-02-09T17:03:50.237Z,100818.55
2018-02-09T17:06:16.427Z,100824.61
2018-02-09T17:08:42.571Z,100825.80
2018-02-09T17:11:08.783Z,100828.78
2018-02-09T17:13:34.916Z,100834.73
2018-02-09T17:16:01.206Z,100843.34
2018-02-09T17:18:27.343Z,100849.36
2018-02-09T17:20:53.476Z,100851.92
2018-02-09T17:23:19.639Z,100854.09
2018-02-09T17:25:45.812Z,100854.45
2018-02-09T17:28:12.064Z,100863.81
2018-02-09T17:30:38.191Z,100855.47
2018-02-09T17:33:04.378Z,100868.35
2018-02-09T17:35:30.491Z,100876.08
2018-02-09T17:37:56.612Z,100871.75
2018-02-09T17:40:22.761Z,100873.98
2018-02-09T17:42:49.025Z,100878.73
2018-02-09T17:45:15.119Z,100877.87
2018-02-09T17:47:41.259Z,100880.48
2018-02-09T17:50:07.399Z,100884.83
2018-02-09T17:52:33.590Z,100884.36
2018-02-09T17:54:59.687Z,100891.32
2018-02-09T17:57:25.883Z,100892.14
2018-02-09T17:59:52.042Z,100895.14
2018-02-09T18:02:18.222Z,100902.47
2018-02-09T18:04:44.363Z,100902.00
2018-02-09T18:07:10.488Z,100906.31
2018-02-09T18:09:36.647Z,100907.53
2018-02-09T18:12:02.866Z,100913.59
2018-02-09T18:14:29.116Z,100917.48
2018-02-09T18:16:55.672Z,100914.80
2018-02-09T18:19:21.947Z,100920.78
2018-02-09T18:21:48.201Z,100923.71
2018-02-09T18:24:14.770Z,100928.06
2018-02-09T18:26:41.075Z,100924.66
2018-02-09T18:29:07.431Z,100929.87
2018-02-09T18:31:33.977Z,100933.70
2018-02-09T18:34:00.172Z,100934.56
2018-02-09T18:36:26.409Z,100931.93
2018-02-09T18:38:52.797Z,100934.09
2018-02-09T18:41:19.112Z,100947.55
2018-02-09T18:43:45.383Z,100941.92
2018-02-09T18:46:11.740Z,100951.84
2018-02-09T18:48:38.026Z,100945.30
2018-02-09T18:51:04.248Z,100949.13
2018-02-09T18:53:30.578Z,100960.40
2018-02-09T18:55:56.852Z,100960.44
2018-02-09T18:58:23.109Z,100966.27
2018-02-09T19:00:49.297Z,100972.09
2018-02-09T19:03:15.513Z,100978.73
2018-02-09T19:05:41.775Z,100977.47
2018-02-09T19:08:08.193Z,100982.42
2018-02-09T19:10:34.407Z,100978.16
2018-02-09T19:13:00.726Z,100975.19
2018-02-09T19:15:27.078Z,100986.58
2018-02-09T19:17:53.384Z,100989.61
2018-02-09T19:20:20.535Z,101001.89
2018-02-09T19:22:46.757Z,101010.23
2018-02-09T19:25:12.987Z,101009.40
2018-02-09T19:27:39.160Z,101015.95
2018-02-09T19:30:05.457Z,101007.78
2018-02-09T19:32:31.771Z,101006.31
2018-02-09T19:34:57.941Z,101004.05
2018-02-09T19:37:24.199Z,101010.70
2018-02-09T19:39:50.395Z,101014.84
2018-02-09T19:42:16.595Z,101012.18
2018-02-09T19:47:26.858Z,101018.78
2018-02-09T19:49:53.116Z,101027.08
2018-02-09T19:52:19.330Z,101021.08
2018-02-09T19:54:45.643Z,101025.55
2018-02-09T19:57:11.948Z,101026.97
2018-02-09T19:59:38.181Z,101028.78
2018-02-09T20:02:04.371Z,101035.77
2018-02-09T20:04:30.562Z,101037.93
2018-02-09T20:06:56.799Z,101036.89
2018-02-09T20:09:23.035Z,101040.17
2018-02-09T20:11:49.580Z,101047.47
2018-02-09T20:14:15.965Z,101048.27
2018-02-09T20:16:42.519Z,101048.08
2018-02-09T20:19:08.834Z,101052.88
2018-02-09T20:21:35.033Z,101058.48
2018-02-09T20:24:01.258Z,101058.03
2018-02-09T20:26:27.512Z,101057.08
2018-02-09T20:28:53.750Z,101058.83
2018-02-09T20:31:20.032Z,101062.75
2018-02-09T20:33:46.304Z,101058.42
2018-02-09T20:36:12.546Z,101061.95
2018-02-09T20:38:38.857Z,101063.70
2018-02-09T20:41:05.028Z,101068.54
2018-02-09T20:43:31.271Z,101074.67
2018-02-09T20:45:57.514Z,101077.89
2018-02-09T20:48:23.727Z,101080.77
2018-02-09T20:50:49.949Z,101078.34
2018-02-09T20:53:16.265Z,101078.93
2018-02-09T20:55:42.470Z,101093.93
2018-02-09T20:58:08.726Z,101081.06
2018-02-09T21:00:34.935Z,101082.10
2018-02-09T21:03:01.124Z,101083.19
2018-02-09T21:05:27.740Z,101085.02
2018-02-09T21:07:54.862Z,101092.55
2018-02-09T21:10:21.068Z,101090.92
2018-02-09T21:12:47.294Z,101095.25
2018-02-09T21:15:13.492Z,101089.64
2018-02-09T21:17:39.705Z,101096.98
2018-02-09T21:20:05.929Z,101106.05
2018-02-09T21:22:32.150Z,101110.73
2018-02-09T21:24:58.369Z,101110.28
2018-02-09T21:27:24.601Z,101116.70
2018-02-09T21:29:50.855Z,101117.51
2018-02-09T21:32:17.070Z,101120.19
2018-02-09T21:34:43.343Z,101122.04
2018-02-09T21:37:09.546Z,101126.07
2018-02-09T21:39:35.720Z,101135.29
2018-02-09T21:42:01.938Z,101139.20
2018-02-09T21:44:28.091Z,101141.02
2018-02-09T21:46:54.293Z,101146.22
2018-02-09T21:49:20.448Z,101140.27
2018-02-09T21:51:46.595Z,101139.33
2018-02-09T21:54:12.769Z,101141.47
2018-02-09T21:56:39.007Z,101143.09
2018-02-09T21:59:05.132Z,101150.41
2018-02-09T22:01:31.288Z,101151.34
2018-02-09T22:03:57.535Z,101157.41
2018-02-09T22:06:23.764Z,101159.58
2018-02-09T22:08:49.987Z,101159.53
2018-02-09T22:11:16.206Z,101164.20
2018-02-09T22:13:42.360Z,101161.50
2018-02-09T22:16:08.580Z,101164.43
2018-02-09T22:18:34.721Z,101174.33
2018-02-09T22:21:00.885Z,101168.19
2018-02-09T22:23:27.065Z,101173.88
2018-02-09T22:25:53.290Z,101170.79
2018-02-09T22:28:19.492Z,101167.75
2018-02-09T22:30:45.691Z,101165.17
2018-02-09T22:33:11.849Z,101161.27
2018-02-09T22:35:38.041Z,101164.80
2018-02-09T22:38:04.286Z,101166.19
2018-02-09T22:40:30.440Z,101166.30
2018-02-09T22:42:56.640Z,101170.30
2018-02-09T22:45:22.838Z,101167.39
2018-02-09T22:47:49.096Z,101170.94
2018-02-09T22:50:15.278Z,101170.90
2018-02-09T22:52:41.420Z,101176.47
2018-02-09T22:55:07.614Z,101179.52
2018-02-09T22:57:33.889Z,101177.40
2018-02-09T23:00:00.095Z,101181.97
2018-02-09T23:02:26.285Z,101181.20
2018-02-09T23:04:52.507Z,101176.02
2018-02-09T23:07:18.758Z,101180.65
2018-02-09T23:09:44.904Z,101172.53
2018-02-09T23:12:11.050Z,101166.93
2018-02-09T23:14:37.252Z,101173.09
2018-02-09T23:17:03.479Z,101173.64
2018-02-09T23:19:29.659Z,101178.44
2018-02-09T23:21:55.797Z,101177.62
2018-02-09T23:24:21.994Z,101176.83
2018-02-09T23:26:48.223Z,101189.44
2018-02-09T23:29:14.360Z,101186.05
2018-02-09T23:31:40.580Z,101187.82
2018-02-09T23:34:06.834Z,101193.98
2018-02-09T23:36:33.088Z,101194.05
2018-02-09T23:38:59.249Z,101195.34
2018-02-09T23:41:25.428Z,101197.59
2018-02-09T23:43:51.677Z,101197.57
2018-02-09T23:46:17.878Z,101196.19
2018-02-09T23:48:44.068Z,101199.55
2018-02-09T23:51:10.264Z,101209.42
2018-02-09T23:53:36.403Z,101214.18
2018-02-09T23:56:02.652Z,101213.78
2018-02-09T23:58:28.863Z,101221.22
